createdAt,value
2023-01-07T00:01:51.743Z,1.03
2023-01-07T00:04:18.864Z,1.00
2023-01-07T00:06:45.991Z,1.40
2023-01-07T00:09:13.910Z,1.13
2023-01-07T00:11:41.831Z,1.13
2023-01-07T00:14:10.927Z,1.30
2023-01-07T00:16:38.212Z,1.20
2023-01-07T00:19:06.644Z,1.30
2023-01-07T00:21:33.776Z,1.10
2023-01-07T00:24:01.688Z,1.20
2023-01-07T00:26:30.528Z,1.50
2023-01-07T00:28:57.951Z,1.40
2023-01-07T00:31:27.454Z,1.30
2023-01-07T00:33:54.930Z,1.30
2023-01-07T00:36:22.480Z,0.97
2023-01-07T00:38:54.731Z,1.27
2023-01-07T00:41:21.890Z,1.00
2023-01-07T00:43:49.027Z,1.63
2023-01-07T00:46:16.546Z,1.37
2023-01-07T00:48:45.136Z,1.10
2023-01-07T00:51:13.108Z,1.20
2023-01-07T00:53:40.433Z,1.00
2023-01-07T00:56:07.709Z,1.13
2023-01-07T00:58:35.649Z,1.30
2023-01-07T01:01:03.382Z,0.90
2023-01-07T01:03:31.303Z,1.13
2023-01-07T01:06:03.259Z,1.10
2023-01-07T01:08:30.435Z,1.70
2023-01-07T01:11:02.630Z,1.07
2023-01-07T01:13:29.729Z,1.30
2023-01-07T01:15:56.921Z,1.17
2023-01-07T01:18:24.080Z,1.10
2023-01-07T01:20:51.189Z,1.07
2023-01-07T01:23:19.682Z,1.10
2023-01-07T01:25:46.819Z,1.30
2023-01-07T01:28:13.913Z,1.20
2023-01-07T01:30:41.810Z,1.50
2023-01-07T01:33:09.965Z,1.10
2023-01-07T01:35:40.350Z,1.17
2023-01-07T01:38:07.619Z,1.03
2023-01-07T01:40:36.242Z,1.07
2023-01-07T01:43:05.093Z,1.20
2023-01-07T01:45:32.495Z,1.23
2023-01-07T01:48:03.253Z,1.20
2023-01-07T01:50:31.820Z,1.83
2023-01-07T01:53:02.214Z,1.30
2023-01-07T01:55:31.755Z,1.00
2023-01-07T01:58:02.936Z,1.10
2023-01-07T02:00:30.240Z,1.07
2023-01-07T02:02:58.078Z,0.90
2023-01-07T02:05:26.837Z,1.17
2023-01-07T02:07:54.006Z,1.10
2023-01-07T02:10:22.650Z,1.30
2023-01-07T02:12:58.843Z,1.00
2023-01-07T02:15:32.535Z,1.20
2023-01-07T02:18:06.353Z,0.80
2023-01-07T02:20:55.220Z,1.10
2023-01-07T02:23:36.445Z,1.10
2023-01-07T02:26:30.867Z,1.07
2023-01-07T02:29:09.484Z,1.00
2023-01-07T02:32:02.937Z,0.93
2023-01-07T02:34:32.880Z,0.90
2023-01-07T02:37:04.585Z,1.00
2023-01-07T02:39:43.227Z,1.07
2023-01-07T02:42:14.957Z,1.00
2023-01-07T02:44:45.969Z,1.00
2023-01-07T02:47:18.500Z,1.10
2023-01-07T02:49:46.871Z,0.90
2023-01-07T02:52:17.067Z,1.03
2023-01-07T02:54:44.739Z,0.90
2023-01-07T02:57:21.476Z,1.40
2023-01-07T02:59:56.113Z,1.10
2023-01-07T03:02:38.193Z,1.60
2023-01-07T03:05:16.470Z,1.37
2023-01-07T03:07:51.884Z,1.83
2023-01-07T03:10:23.046Z,1.40
2023-01-07T03:12:52.568Z,1.60
2023-01-07T03:15:21.677Z,1.50
2023-01-07T03:17:52.634Z,1.50
2023-01-07T03:20:23.129Z,1.53
2023-01-07T03:22:50.863Z,1.40
2023-01-07T03:25:18.301Z,1.70
2023-01-07T03:27:46.836Z,1.60
2023-01-07T03:30:16.046Z,1.47
2023-01-07T03:32:45.266Z,1.30
2023-01-07T03:35:12.456Z,1.60
2023-01-07T03:37:42.177Z,1.63
2023-01-07T03:40:10.102Z,1.80
2023-01-07T03:42:40.362Z,1.40
2023-01-07T03:45:23.943Z,1.60
2023-01-07T03:47:53.059Z,1.40
2023-01-07T03:50:21.113Z,1.67
2023-01-07T03:52:49.669Z,1.40
2023-01-07T03:55:18.154Z,1.70
2023-01-07T03:57:46.280Z,1.50
2023-01-07T04:00:14.074Z,1.60
2023-01-07T04:02:41.228Z,1.87
2023-01-07T04:05:13.958Z,1.60
2023-01-07T04:07:42.039Z,1.80
2023-01-07T04:10:10.855Z,1.73
2023-01-07T04:12:38.063Z,1.93
2023-01-07T04:15:06.516Z,1.60
2023-01-07T04:17:33.788Z,1.70
2023-01-07T04:20:00.936Z,1.57
2023-01-07T04:22:28.288Z,1.77
2023-01-07T04:24:55.415Z,2.20
2023-01-07T04:27:23.886Z,2.00
2023-01-07T04:29:51.888Z,2.23
2023-01-07T04:32:19.068Z,2.00
2023-01-07T04:34:46.215Z,2.20
2023-01-07T04:37:13.362Z,2.40
2023-01-07T04:39:41.025Z,2.20
2023-01-07T04:42:08.250Z,2.40
2023-01-07T04:44:36.721Z,2.37
2023-01-07T04:47:03.885Z,2.13
2023-01-07T04:49:31.175Z,2.23
2023-01-07T04:51:59.027Z,1.80
2023-01-07T04:54:26.733Z,2.10
2023-01-07T04:56:54.184Z,2.00
2023-01-07T04:59:21.916Z,2.47
2023-01-07T05:01:50.621Z,2.17
2023-01-07T05:04:18.099Z,2.20
2023-01-07T05:06:46.035Z,2.30
2023-01-07T05:09:13.503Z,1.70
2023-01-07T05:11:40.631Z,2.00
2023-01-07T05:14:08.362Z,1.83
2023-01-07T05:16:36.457Z,2.20
2023-01-07T05:19:10.039Z,2.00
2023-01-07T05:21:41.108Z,2.10
2023-01-07T05:24:08.592Z,1.97
2023-01-07T05:26:36.142Z,2.10
2023-01-07T05:29:03.665Z,2.10
2023-01-07T05:31:32.147Z,2.27
2023-01-07T05:33:59.380Z,2.33
2023-01-07T05:36:27.923Z,1.60
2023-01-07T05:38:55.954Z,2.07
2023-01-07T05:41:23.347Z,1.93
2023-01-07T05:43:50.508Z,1.70
2023-01-07T05:46:17.776Z,1.80
2023-01-07T05:48:44.922Z,1.90
2023-01-07T05:51:11.988Z,1.97
2023-01-07T05:53:40.476Z,1.83
2023-01-07T05:56:07.881Z,2.10
2023-01-07T05:58:34.998Z,2.10
2023-01-07T06:01:02.298Z,1.77
2023-01-07T06:03:29.574Z,1.70
2023-01-07T06:05:56.712Z,1.80
2023-01-07T06:08:23.857Z,1.80
2023-01-07T06:10:52.318Z,1.63
2023-01-07T06:13:19.426Z,1.80
2023-01-07T06:15:46.602Z,1.77
2023-01-07T06:18:13.729Z,2.03
2023-01-07T06:20:40.859Z,1.40
2023-01-07T06:23:07.994Z,1.73
2023-01-07T06:25:35.112Z,1.43
2023-01-07T06:28:03.608Z,1.50
2023-01-07T06:30:30.708Z,1.50
2023-01-07T06:32:57.859Z,1.73
2023-01-07T06:35:25.012Z,1.70
2023-01-07T06:37:52.153Z,2.33
2023-01-07T06:40:19.316Z,2.00
2023-01-07T06:42:46.456Z,1.57
2023-01-07T06:45:14.974Z,1.67
2023-01-07T06:47:42.141Z,2.00
2023-01-07T06:50:09.749Z,2.00
2023-01-07T06:52:36.869Z,1.70
2023-01-07T06:55:04.115Z,2.10
2023-01-07T06:57:31.230Z,1.63
2023-01-07T06:59:58.375Z,2.07
2023-01-07T07:02:27.838Z,1.90
2023-01-07T07:04:55.201Z,1.73
2023-01-07T07:07:22.299Z,2.10
2023-01-07T07:09:49.719Z,1.60
2023-01-07T07:12:17.306Z,1.63
2023-01-07T07:14:44.426Z,1.70
2023-01-07T07:17:11.868Z,1.57
2023-01-07T07:19:40.339Z,2.03
2023-01-07T07:22:07.490Z,1.50
2023-01-07T07:24:34.586Z,1.47
2023-01-07T07:27:01.713Z,1.63
2023-01-07T07:29:28.803Z,1.77
2023-01-07T07:31:55.948Z,1.97
2023-01-07T07:34:23.036Z,1.77
2023-01-07T07:36:51.528Z,1.50
2023-01-07T07:39:18.647Z,2.00
2023-01-07T07:41:45.751Z,1.73
2023-01-07T07:44:17.108Z,1.80
2023-01-07T07:46:44.392Z,1.50
2023-01-07T07:49:11.583Z,1.87
2023-01-07T07:51:38.869Z,1.57
2023-01-07T07:54:07.368Z,1.63
2023-01-07T07:56:34.486Z,2.17
2023-01-07T07:59:01.606Z,1.53
2023-01-07T08:01:28.822Z,1.50
2023-01-07T08:03:56.074Z,1.30
2023-01-07T08:06:23.161Z,1.70
2023-01-07T08:08:50.312Z,1.73
2023-01-07T08:11:18.744Z,1.40
2023-01-07T08:13:45.915Z,1.80
2023-01-07T08:16:13.076Z,1.60
2023-01-07T08:18:40.235Z,1.60
2023-01-07T08:21:07.351Z,1.40
2023-01-07T08:23:34.484Z,1.50
2023-01-07T08:26:01.689Z,1.60
2023-01-07T08:28:30.171Z,1.63
2023-01-07T08:30:57.332Z,1.50
2023-01-07T08:33:24.515Z,2.00
2023-01-07T08:35:51.616Z,1.47
2023-01-07T08:38:18.717Z,1.50
2023-01-07T08:40:45.826Z,2.03
2023-01-07T08:43:12.956Z,1.37
2023-01-07T08:45:41.424Z,1.70
2023-01-07T08:48:08.534Z,1.70
2023-01-07T08:50:35.652Z,1.70
2023-01-07T08:53:02.782Z,1.50
2023-01-07T08:55:29.923Z,1.73
2023-01-07T08:57:57.034Z,1.70
2023-01-07T09:00:24.180Z,1.70
2023-01-07T09:02:52.710Z,1.97
2023-01-07T09:05:19.916Z,1.53
2023-01-07T09:07:47.044Z,1.60
2023-01-07T09:10:14.196Z,1.97
2023-01-07T09:12:41.351Z,1.70
2023-01-07T09:15:09.300Z,1.53
2023-01-07T09:17:36.428Z,1.60
2023-01-07T09:20:05.646Z,1.60
2023-01-07T09:22:33.678Z,2.20
2023-01-07T09:25:00.830Z,1.90
2023-01-07T09:27:27.993Z,1.70
2023-01-07T09:29:55.211Z,1.40
2023-01-07T09:32:22.329Z,1.57
2023-01-07T09:34:50.015Z,2.37
2023-01-07T09:37:18.486Z,1.60
2023-01-07T09:39:45.627Z,1.50
2023-01-07T09:42:15.251Z,1.70
2023-01-07T09:44:49.383Z,1.70
2023-01-07T09:47:18.632Z,1.80
2023-01-07T09:49:47.192Z,1.90
2023-01-07T09:52:16.515Z,1.60
2023-01-07T09:54:46.452Z,1.80
2023-01-07T09:57:15.033Z,1.50
2023-01-07T09:59:42.185Z,2.00
2023-01-07T10:02:17.152Z,1.60
2023-01-07T10:04:48.491Z,1.80
2023-01-07T10:07:21.448Z,1.77
2023-01-07T10:09:56.485Z,1.63
2023-01-07T10:12:26.113Z,1.73
2023-01-07T10:15:05.809Z,1.80
2023-01-07T10:17:39.476Z,2.00
2023-01-07T10:20:12.494Z,1.77
2023-01-07T10:22:40.899Z,1.97
2023-01-07T10:25:14.159Z,2.43
2023-01-07T10:27:43.274Z,2.07
2023-01-07T10:30:14.197Z,2.50
2023-01-07T10:32:42.293Z,2.30
2023-01-07T10:35:14.118Z,2.40
2023-01-07T10:37:41.884Z,2.40
2023-01-07T10:40:26.754Z,2.63
2023-01-07T10:43:00.709Z,2.20
2023-01-07T10:45:48.941Z,3.10
2023-01-07T10:48:27.377Z,2.80
2023-01-07T10:51:01.218Z,2.70
2023-01-07T10:53:34.872Z,2.53
2023-01-07T10:56:08.091Z,2.20
2023-01-07T10:58:38.721Z,3.17
2023-01-07T11:01:06.278Z,2.40
2023-01-07T11:03:33.699Z,3.10
2023-01-07T11:06:04.705Z,2.20
2023-01-07T11:08:37.336Z,2.90
2023-01-07T11:11:04.850Z,2.70
2023-01-07T11:13:33.651Z,2.80
2023-01-07T11:16:03.684Z,3.77
2023-01-07T11:18:34.689Z,2.40
2023-01-07T11:21:02.155Z,2.73
2023-01-07T11:23:30.775Z,2.90
2023-01-07T11:26:06.594Z,2.80
2023-01-07T11:28:34.280Z,3.03
2023-01-07T11:31:02.932Z,2.60
2023-01-07T11:34:03.673Z,2.70
2023-01-07T11:36:38.757Z,3.20
2023-01-07T11:39:09.560Z,3.47
2023-01-07T11:41:36.667Z,3.23
2023-01-07T11:44:03.900Z,2.43
2023-01-07T11:46:32.402Z,2.40
2023-01-07T11:48:59.598Z,2.53
2023-01-07T11:51:27.230Z,2.63
2023-01-07T11:53:56.848Z,2.57
2023-01-07T11:56:24.892Z,2.87
2023-01-07T11:58:53.157Z,2.70
2023-01-07T12:01:21.301Z,3.00
2023-01-07T12:04:03.598Z,2.20
2023-01-07T12:06:33.275Z,2.57
2023-01-07T12:09:03.800Z,2.40
2023-01-07T12:11:31.698Z,1.93
2023-01-07T12:14:02.478Z,1.87
2023-01-07T12:16:29.627Z,1.70
2023-01-07T12:19:03.459Z,1.67
2023-01-07T12:21:35.967Z,1.50
2023-01-07T12:24:16.719Z,1.53
2023-01-07T12:26:47.832Z,1.10
2023-01-07T12:29:20.779Z,1.70
2023-01-07T12:31:57.053Z,1.30
2023-01-07T12:34:31.032Z,1.60
2023-01-07T12:37:02.544Z,1.67
2023-01-07T12:39:33.322Z,1.63
2023-01-07T12:42:03.526Z,1.70
2023-01-07T12:44:31.291Z,1.60
2023-01-07T12:47:31.973Z,1.30
2023-01-07T12:49:51.541Z,1.40
2023-01-07T12:52:21.013Z,1.40
2023-01-07T12:54:51.488Z,1.57
2023-01-07T12:57:19.682Z,1.27
2023-01-07T12:59:48.832Z,1.40
2023-01-07T13:02:22.959Z,1.40
2023-01-07T13:04:53.392Z,1.60
2023-01-07T13:07:24.128Z,1.73
2023-01-07T13:09:52.965Z,1.70
2023-01-07T13:12:42.108Z,1.60
2023-01-07T13:15:13.016Z,1.80
2023-01-07T13:17:40.098Z,1.97
2023-01-07T13:20:12.013Z,2.40
2023-01-07T13:22:42.262Z,1.50
2023-01-07T13:25:13.984Z,1.70
2023-01-07T13:27:51.271Z,1.70
2023-01-07T13:30:22.159Z,1.90
2023-01-07T13:32:56.097Z,2.10
2023-01-07T13:35:37.323Z,2.30
2023-01-07T13:38:12.388Z,2.17
2023-01-07T13:40:54.687Z,1.90
2023-01-07T13:43:30.411Z,2.00
2023-01-07T13:45:59.012Z,2.20
2023-01-07T13:48:27.062Z,1.80
2023-01-07T13:50:58.150Z,2.33
2023-01-07T13:53:32.497Z,2.00
2023-01-07T13:56:14.515Z,1.80
2023-01-07T13:58:43.885Z,2.20
2023-01-07T14:01:11.856Z,1.87
2023-01-07T14:03:43.172Z,2.13
2023-01-07T14:06:43.303Z,2.13
2023-01-07T14:09:20.066Z,2.50
2023-01-07T14:12:00.707Z,2.03
2023-01-07T14:14:31.930Z,2.20
2023-01-07T14:17:02.392Z,2.10
2023-01-07T14:19:33.512Z,2.03
2023-01-07T14:22:06.608Z,1.97
2023-01-07T14:24:52.996Z,2.40
2023-01-07T14:27:28.612Z,1.97
2023-01-07T14:29:59.388Z,2.33
2023-01-07T14:32:31.559Z,2.03
2023-01-07T14:35:00.180Z,2.00
2023-01-07T14:37:31.077Z,2.30
2023-01-07T14:39:59.638Z,2.50
2023-01-07T14:42:28.314Z,2.47
2023-01-07T14:44:55.392Z,1.97
2023-01-07T14:47:41.005Z,2.27
2023-01-07T14:50:14.922Z,2.07
2023-01-07T14:53:12.311Z,1.97
2023-01-07T14:55:46.812Z,1.90
2023-01-07T14:58:23.545Z,1.83
2023-01-07T15:01:02.558Z,2.10
2023-01-07T15:03:38.679Z,2.10
2023-01-07T15:06:14.395Z,2.00
2023-01-07T15:08:45.016Z,2.33
2023-01-07T15:11:16.433Z,2.07
2023-01-07T15:13:45.589Z,2.17
2023-01-07T15:16:13.080Z,2.33
2023-01-07T15:18:45.731Z,1.90
2023-01-07T15:21:15.868Z,1.90
2023-01-07T15:23:46.159Z,2.10
2023-01-07T15:26:18.169Z,2.30
2023-01-07T15:28:48.261Z,2.13
2023-01-07T15:31:19.043Z,2.27
2023-01-07T15:34:03.956Z,2.47
2023-01-07T15:36:31.567Z,1.93
2023-01-07T15:39:00.345Z,2.40
2023-01-07T15:41:29.445Z,2.40
2023-01-07T15:43:57.193Z,2.10
2023-01-07T15:46:25.452Z,2.50
2023-01-07T15:49:05.810Z,2.53
2023-01-07T15:51:33.243Z,2.60
2023-01-07T15:54:00.343Z,2.10
2023-01-07T15:56:29.133Z,2.20
2023-01-07T15:58:56.657Z,2.27
2023-01-07T16:01:24.824Z,2.20
2023-01-07T16:03:52.913Z,1.87
2023-01-07T16:06:26.323Z,2.40
2023-01-07T16:08:53.454Z,2.07
2023-01-07T16:11:23.745Z,3.23
2023-01-07T16:13:56.635Z,2.80
2023-01-07T16:16:24.460Z,2.20
2023-01-07T16:18:55.070Z,2.30
2023-01-07T16:21:22.511Z,2.20
2023-01-07T16:23:49.713Z,2.40
2023-01-07T16:26:18.346Z,2.97
2023-01-07T16:28:48.043Z,2.03
2023-01-07T16:31:19.746Z,2.40
2023-01-07T16:33:48.035Z,2.57
2023-01-07T16:36:16.777Z,2.90
2023-01-07T16:38:44.281Z,3.00
2023-01-07T16:41:16.637Z,2.40
2023-01-07T16:43:44.563Z,2.10
2023-01-07T16:46:24.491Z,2.90
2023-01-07T16:49:10.275Z,2.70
2023-01-07T16:51:38.517Z,2.70
2023-01-07T16:54:21.296Z,3.07
2023-01-07T16:56:48.700Z,2.43
2023-01-07T16:59:16.031Z,2.53
2023-01-07T17:01:44.701Z,2.70
2023-01-07T17:04:17.069Z,3.23
2023-01-07T17:06:44.279Z,3.00
2023-01-07T17:09:19.751Z,3.43
2023-01-07T17:11:48.046Z,3.30
2023-01-07T17:14:30.086Z,3.97
2023-01-07T17:17:02.109Z,2.50
2023-01-07T17:19:34.598Z,3.10
2023-01-07T17:22:01.733Z,3.33
2023-01-07T17:24:50.072Z,2.83
2023-01-07T17:27:20.384Z,3.10
2023-01-07T17:29:47.568Z,3.57
2023-01-07T17:32:16.156Z,3.60
2023-01-07T17:34:43.288Z,3.27
2023-01-07T17:37:13.669Z,3.03
2023-01-07T17:39:40.801Z,3.43
2023-01-07T17:42:14.817Z,3.20
2023-01-07T17:44:41.934Z,2.47
2023-01-07T17:47:10.590Z,2.57
2023-01-07T17:49:39.046Z,2.73
2023-01-07T17:52:06.236Z,3.07
2023-01-07T17:54:33.337Z,3.07
2023-01-07T17:57:00.451Z,3.30
2023-01-07T17:59:29.217Z,3.57
2023-01-07T18:01:57.447Z,3.27
2023-01-07T18:04:24.665Z,3.03
2023-01-07T18:06:53.099Z,2.87
2023-01-07T18:09:20.239Z,3.23
2023-01-07T18:11:47.429Z,2.90
2023-01-07T18:14:15.216Z,3.27
2023-01-07T18:16:42.663Z,2.83
2023-01-07T18:19:12.227Z,3.17
2023-01-07T18:21:39.350Z,3.27
2023-01-07T18:24:08.149Z,2.83
2023-01-07T18:26:35.283Z,2.60
2023-01-07T18:29:02.460Z,3.63
2023-01-07T18:31:29.682Z,3.30
2023-01-07T18:33:56.863Z,3.20
2023-01-07T18:36:23.990Z,3.07
2023-01-07T18:38:51.139Z,3.20
2023-01-07T18:41:19.624Z,2.97
2023-01-07T18:43:46.735Z,2.97
2023-01-07T18:46:16.029Z,3.40
2023-01-07T18:48:44.513Z,3.70
2023-01-07T18:51:11.978Z,3.57
2023-01-07T18:53:39.164Z,3.40
2023-01-07T18:56:06.537Z,3.37
2023-01-07T18:58:34.994Z,3.47
2023-01-07T19:01:02.800Z,3.87
2023-01-07T19:03:30.042Z,3.93
2023-01-07T19:05:57.207Z,3.60
2023-01-07T19:08:24.346Z,3.33
2023-01-07T19:10:51.441Z,3.20
2023-01-07T19:13:18.559Z,3.43
2023-01-07T19:15:47.025Z,3.10
2023-01-07T19:18:14.158Z,3.00
2023-01-07T19:20:41.259Z,3.37
2023-01-07T19:23:08.377Z,3.33
2023-01-07T19:25:35.507Z,3.30
2023-01-07T19:28:02.638Z,2.90
2023-01-07T19:30:29.747Z,3.10
2023-01-07T19:32:59.132Z,3.70
2023-01-07T19:35:26.286Z,3.60
2023-01-07T19:37:53.415Z,4.03
2023-01-07T19:40:20.542Z,3.53
2023-01-07T19:42:47.627Z,3.40
2023-01-07T19:45:14.746Z,3.90
2023-01-07T19:47:41.874Z,4.13
2023-01-07T19:50:10.594Z,3.77
2023-01-07T19:52:37.758Z,3.23
2023-01-07T19:55:05.307Z,3.50
2023-01-07T19:57:32.423Z,3.30
2023-01-07T19:59:59.542Z,4.13
2023-01-07T20:02:26.976Z,4.03
2023-01-07T20:04:54.191Z,3.50
2023-01-07T20:07:22.611Z,3.20
2023-01-07T20:09:49.734Z,3.50
2023-01-07T20:12:16.831Z,2.73
2023-01-07T20:14:43.969Z,3.40
2023-01-07T20:17:11.283Z,3.77
2023-01-07T20:19:38.401Z,3.37
2023-01-07T20:22:05.503Z,3.60
2023-01-07T20:24:34.001Z,3.53
2023-01-07T20:27:01.122Z,3.40
2023-01-07T20:29:28.354Z,3.53
2023-01-07T20:31:55.674Z,3.80
2023-01-07T20:34:22.853Z,3.70
2023-01-07T20:36:49.965Z,3.07
2023-01-07T20:39:17.105Z,2.73
2023-01-07T20:41:45.558Z,3.20
2023-01-07T20:44:12.662Z,3.00
2023-01-07T20:46:39.863Z,2.47
2023-01-07T20:49:07.122Z,2.47
2023-01-07T20:51:34.244Z,3.60
2023-01-07T20:54:01.361Z,3.23
2023-01-07T20:56:28.471Z,2.67
2023-01-07T20:58:56.934Z,3.30
2023-01-07T21:01:24.196Z,3.17
2023-01-07T21:03:51.471Z,2.80
2023-01-07T21:06:19.244Z,2.60
2023-01-07T21:08:46.653Z,2.87
2023-01-07T21:11:15.278Z,2.63
2023-01-07T21:13:42.448Z,2.70
2023-01-07T21:16:10.994Z,2.80
2023-01-07T21:18:38.164Z,2.63
2023-01-07T21:21:09.239Z,2.80
2023-01-07T21:23:36.360Z,2.57
2023-01-07T21:26:03.490Z,2.73
2023-01-07T21:28:30.647Z,2.37
2023-01-07T21:31:01.687Z,2.53
2023-01-07T21:33:30.148Z,2.43
2023-01-07T21:35:57.227Z,2.10
2023-01-07T21:38:24.359Z,2.43
2023-01-07T21:40:51.456Z,2.33
2023-01-07T21:43:18.605Z,2.17
2023-01-07T21:45:45.794Z,2.50
2023-01-07T21:48:12.937Z,2.63
2023-01-07T21:50:41.399Z,2.00
2023-01-07T21:53:08.545Z,2.30
2023-01-07T21:55:37.841Z,2.57
2023-01-07T21:58:04.991Z,2.57
2023-01-07T22:00:32.103Z,2.10
2023-01-07T22:02:59.230Z,2.50
2023-01-07T22:05:26.341Z,2.50
2023-01-07T22:07:54.812Z,1.80
2023-01-07T22:10:21.922Z,1.83
2023-01-07T22:12:49.086Z,1.90
2023-01-07T22:15:16.271Z,2.07
2023-01-07T22:17:43.411Z,1.83
2023-01-07T22:20:11.333Z,1.93
2023-01-07T22:22:38.428Z,1.80
2023-01-07T22:25:07.732Z,1.87
2023-01-07T22:27:34.845Z,1.60
2023-01-07T22:30:01.969Z,2.33
2023-01-07T22:32:29.103Z,2.13
2023-01-07T22:34:56.224Z,1.80
2023-01-07T22:37:23.650Z,2.10
2023-01-07T22:39:51.999Z,1.67
2023-01-07T22:42:21.751Z,2.03
2023-01-07T22:44:51.201Z,1.77
2023-01-07T22:47:20.083Z,2.47
2023-01-07T22:49:48.247Z,1.90
2023-01-07T22:52:15.368Z,2.00
2023-01-07T22:54:42.517Z,2.20
2023-01-07T22:57:11.194Z,2.00
2023-01-07T22:59:39.707Z,1.93
2023-01-07T23:02:06.812Z,2.23
2023-01-07T23:04:33.952Z,1.80
2023-01-07T23:07:01.137Z,2.37
2023-01-07T23:09:28.282Z,2.17
2023-01-07T23:11:55.377Z,1.90
2023-01-07T23:14:23.293Z,1.70
2023-01-07T23:16:52.165Z,2.00
2023-01-07T23:19:19.639Z,1.70
2023-01-07T23:21:47.669Z,2.20
2023-01-07T23:24:15.066Z,2.63
2023-01-07T23:26:42.488Z,2.20
2023-01-07T23:29:09.973Z,1.80
2023-01-07T23:31:37.629Z,2.10
2023-01-07T23:34:06.155Z,1.77
2023-01-07T23:36:33.287Z,2.10
2023-01-07T23:39:00.399Z,1.87
2023-01-07T23:41:27.515Z,2.00
2023-01-07T23:43:54.649Z,2.00
2023-01-07T23:46:21.739Z,1.93
2023-01-07T23:48:48.853Z,1.47
2023-01-07T23:51:18.431Z,1.50
2023-01-07T23:53:46.207Z,1.70
2023-01-07T23:56:13.688Z,1.70
2023-01-07T23:58:40.825Z,1.83
